Time;durP1;ratioP1;P1;durP2;ratioP2;P2;SDS_P1;SDS_P2;PMS_P1;PMS_P2;Temp;Humidity;BMP_temperature;BMP_pressure;BME280_temperature;BME280_humidity;BME280_pressure;Samples;Min_cycle;Max_cycle;Signal;HPM_P1;HPM_P2
2022/05/02 00:00:45;;;;;;;22.83;18.25;;;12.40;98.50;;;;;;4963792;28;20434;-67
2022/05/02 00:03:12;;;;;;;25.55;18.73;;;12.40;98.70;;;;;;4964693;28;20035;-71
2022/05/02 00:05:39;;;;;;;24.40;16.95;;;12.30;98.90;;;;;;4965629;28;20371;-67
2022/05/02 00:08:05;;;;;;;23.92;17.67;;;12.30;98.90;;;;;;4963795;28;20031;-67
2022/05/02 00:10:32;;;;;;;22.05;16.40;;;12.20;99.50;;;;;;4963585;28;20030;-67
2022/05/02 00:12:58;;;;;;;25.15;16.75;;;12.10;99.60;;;;;;4964326;28;20031;-67
2022/05/02 00:15:24;;;;;;;28.40;18.40;;;12.10;99.60;;;;;;4966689;28;20478;-68
2022/05/02 00:17:56;;;;;;;27.33;18.17;;;12.10;99.70;;;;;;4967808;28;20118;-70
2022/05/02 00:20:22;;;;;;;25.38;18.33;;;12.00;99.90;;;;;;4968040;28;20034;-67
2022/05/02 00:22:48;;;;;;;25.92;19.23;;;11.90;99.50;;;;;;4971125;28;20030;-67
2022/05/02 00:25:14;;;;;;;26.52;20.70;;;12.00;99.50;;;;;;4967051;28;20023;-67
2022/05/02 00:27:41;;;;;;;25.25;18.50;;;12.00;99.30;;;;;;4970771;28;20023;-67
2022/05/02 00:30:08;;;;;;;25.73;19.73;;;12.00;99.30;;;;;;4965670;28;20058;-67
2022/05/02 00:32:34;;;;;;;28.38;19.08;;;11.90;99.70;;;;;;4969493;28;20042;-67
2022/05/02 00:35:00;;;;;;;28.60;19.10;;;11.90;99.80;;;;;;4971334;28;20368;-67
2022/05/02 00:37:25;;;;;;;22.88;18.23;;;11.80;99.90;;;;;;4970699;28;20501;-67
2022/05/02 00:39:51;;;;;;;29.05;20.73;;;11.70;99.90;;;;;;4971757;28;20027;-69
2022/05/02 00:42:18;;;;;;;26.88;20.45;;;11.60;99.90;;;;;;4971460;28;20038;-69
2022/05/02 00:44:44;;;;;;;25.90;19.67;;;11.60;99.90;;;;;;4969484;28;20471;-68
2022/05/02 00:47:10;;;;;;;29.08;19.50;;;11.60;99.90;;;;;;4967706;28;20101;-68
2022/05/02 00:49:39;;;;;;;30.55;19.65;;;11.50;99.90;;;;;;4965316;28;20566;-68
2022/05/02 00:52:05;;;;;;;28.25;20.50;;;11.60;99.80;;;;;;4969395;28;20454;-68
2022/05/02 00:54:32;;;;;;;28.45;21.33;;;11.60;99.70;;;;;;4964437;28;20034;-69
2022/05/02 00:56:59;;;;;;;30.00;21.05;;;11.60;99.80;;;;;;4969574;28;20033;-68
2022/05/02 00:59:26;;;;;;;30.98;21.10;;;11.60;99.60;;;;;;4964234;28;20031;-68
2022/05/02 01:01:52;;;;;;;33.35;21.58;;;11.60;99.60;;;;;;4967235;28;20015;-68
2022/05/02 01:04:17;;;;;;;30.98;21.90;;;11.60;99.10;;;;;;4966812;28;20102;-68
2022/05/02 01:09:28;;;;;;;33.80;23.77;;;11.50;99.60;;;;;;4966303;28;20446;-69
2022/05/02 01:11:55;;;;;;;34.65;22.30;;;11.40;99.90;;;;;;4968092;28;20031;-69
2022/05/02 01:14:20;;;;;;;30.30;22.15;;;11.40;99.90;;;;;;4966622;28;20543;-69
2022/05/02 01:16:46;;;;;;;30.25;21.45;;;11.40;99.90;;;;;;4964570;28;20114;-69
2022/05/02 01:19:12;;;;;;;33.10;23.27;;;11.30;99.90;;;;;;4966905;28;20391;-68
2022/05/02 01:21:38;;;;;;;32.50;22.88;;;11.20;99.90;;;;;;4969889;28;20027;-68
2022/05/02 01:24:05;;;;;;;35.35;22.27;;;11.20;99.90;;;;;;4965417;28;20265;-68
2022/05/02 01:26:31;;;;;;;32.35;23.10;;;11.20;99.90;;;;;;4969646;28;20084;-68
2022/05/02 01:28:59;;;;;;;29.58;22.45;;;11.30;99.40;;;;;;4971048;28;20387;-68
2022/05/02 01:31:25;;;;;;;32.65;23.63;;;11.20;99.90;;;;;;4970461;28;20057;-69
2022/05/02 01:33:52;;;;;;;34.03;23.67;;;11.20;99.90;;;;;;4967325;28;20031;-68
2022/05/02 01:36:19;;;;;;;32.72;23.30;;;11.10;99.90;;;;;;4968530;28;20151;-68
2022/05/02 01:38:45;;;;;;;34.47;23.83;;;11.10;99.90;;;;;;4967622;28;20066;-69
2022/05/02 01:41:11;;;;;;;32.85;22.73;;;11.00;99.90;;;;;;4969609;28;20023;-68
2022/05/02 01:43:38;;;;;;;32.97;24.58;;;11.10;99.90;;;;;;4970086;28;20475;-69
2022/05/02 01:46:05;;;;;;;33.15;24.35;;;11.10;99.90;;;;;;4965714;28;20038;-69
2022/05/02 01:48:31;;;;;;;34.10;24.40;;;10.90;99.90;;;;;;4968718;28;20019;-68
2022/05/02 01:50:58;;;;;;;32.83;21.90;;;10.90;99.90;;;;;;4962477;28;20031;-69
2022/05/02 01:53:24;;;;;;;32.33;21.33;;;10.90;99.90;;;;;;4964561;28;20484;-69
2022/05/02 01:55:50;;;;;;;34.63;22.92;;;10.80;99.90;;;;;;4970375;28;20023;-68
2022/05/02 01:58:16;;;;;;;33.22;23.70;;;10.80;99.90;;;;;;4966403;28;20031;-68
2022/05/02 02:00:42;;;;;;;31.25;23.00;;;10.80;99.90;;;;;;4967958;28;20368;-68
2022/05/02 02:03:08;;;;;;;33.85;22.20;;;10.80;99.90;;;;;;4967573;28;20114;-68
2022/05/02 02:05:49;;;;;;;31.88;22.17;;;10.80;99.90;;;;;;4965904;28;20034;-69
2022/05/02 02:08:23;;;;;;;32.67;21.52;;;10.80;99.90;;;;;;4964393;28;20042;-69
2022/05/02 02:10:50;;;;;;;31.13;21.65;;;10.70;99.90;;;;;;4969358;28;20038;-68
2022/05/02 02:13:16;;;;;;;30.85;21.92;;;10.70;99.90;;;;;;4966484;28;20126;-68
2022/05/02 02:15:43;;;;;;;33.05;21.17;;;10.60;99.90;;;;;;4967504;28;20038;-68
2022/05/02 02:18:09;;;;;;;29.63;20.50;;;10.60;99.90;;;;;;4968277;28;20403;-68
2022/05/02 02:20:35;;;;;;;29.92;20.75;;;10.50;99.90;;;;;;4964362;28;20039;-68
2022/05/02 02:23:02;;;;;;;28.83;20.50;;;10.50;99.90;;;;;;4967245;28;20360;-68
2022/05/02 02:25:28;;;;;;;28.33;20.65;;;10.60;99.90;;;;;;4966083;28;20034;-68
2022/05/02 02:27:54;;;;;;;28.80;20.88;;;10.60;99.90;;;;;;4967318;28;20106;-68
2022/05/02 02:30:20;;;;;;;27.25;19.15;;;10.50;99.90;;;;;;4962699;28;20112;-68
2022/05/02 02:32:46;;;;;;;26.13;19.48;;;10.40;99.90;;;;;;4966591;28;20553;-67
2022/05/02 02:35:12;;;;;;;29.33;21.63;;;10.50;99.90;;;;;;4959931;28;20110;-67
2022/05/02 02:37:37;;;;;;;28.13;20.45;;;10.40;99.90;;;;;;4964890;28;20066;-67
2022/05/02 02:40:04;;;;;;;27.00;19.90;;;10.30;99.90;;;;;;4968454;28;20082;-69
2022/05/02 02:42:29;;;;;;;29.60;22.27;;;10.30;99.90;;;;;;4967105;28;20046;-69
2022/05/02 02:44:55;;;;;;;33.20;21.23;;;10.30;99.90;;;;;;4968333;28;20027;-68
2022/05/02 02:47:21;;;;;;;34.72;21.27;;;10.30;99.90;;;;;;4967336;28;20077;-69
2022/05/02 02:49:46;;;;;;;28.55;21.15;;;10.20;99.90;;;;;;4965619;28;20553;-68
2022/05/02 02:52:12;;;;;;;31.02;21.77;;;10.20;99.90;;;;;;4962577;28;20066;-69
2022/05/02 02:54:37;;;;;;;29.85;20.83;;;10.10;99.90;;;;;;4965192;28;20031;-68
2022/05/02 02:57:03;;;;;;;29.40;21.33;;;10.10;99.90;;;;;;4966946;28;20096;-68
2022/05/02 02:59:30;;;;;;;28.98;20.20;;;10.10;99.90;;;;;;4967558;28;20023;-69
2022/05/02 03:01:56;;;;;;;27.83;20.83;;;10.20;99.90;;;;;;4967500;28;20399;-68
2022/05/02 03:07:08;;;;;;;28.80;21.75;;;10.20;99.90;;;;;;4964270;28;20139;-69
2022/05/02 03:09:34;;;;;;;30.45;22.00;;;10.10;99.90;;;;;;4965608;28;20101;-69
2022/05/02 03:11:59;;;;;;;30.00;20.45;;;10.00;99.90;;;;;;4967050;28;20058;-68
2022/05/02 03:14:25;;;;;;;28.33;21.02;;;9.90;99.90;;;;;;4958709;28;20046;-69
2022/05/02 03:16:51;;;;;;;32.42;21.33;;;9.90;99.90;;;;;;4968223;28;20038;-68
2022/05/02 03:19:16;;;;;;;33.83;20.85;;;9.80;99.90;;;;;;4967038;28;20483;-69
2022/05/02 03:21:42;;;;;;;28.08;19.75;;;9.80;99.90;;;;;;4965137;28;20033;-69
2022/05/02 03:24:08;;;;;;;27.58;21.02;;;9.80;99.90;;;;;;4969345;28;20022;-68
2022/05/02 03:26:33;;;;;;;34.13;21.25;;;9.70;99.90;;;;;;4968624;28;20031;-69
2022/05/02 03:28:59;;;;;;;32.67;22.08;;;9.70;99.90;;;;;;4968210;28;20058;-68
2022/05/02 03:31:25;;;;;;;32.88;21.02;;;9.70;99.90;;;;;;4967484;28;20031;-68
2022/05/02 03:33:50;;;;;;;31.85;20.77;;;9.60;99.90;;;;;;4968209;28;20034;-68
2022/05/02 03:36:16;;;;;;;29.48;21.88;;;9.60;99.90;;;;;;4967639;28;20414;-68
2022/05/02 03:38:42;;;;;;;30.85;21.85;;;9.60;99.90;;;;;;4964843;28;20030;-68
2022/05/02 03:41:07;;;;;;;32.70;21.85;;;9.60;99.90;;;;;;4962195;28;20023;-68
2022/05/02 03:43:34;;;;;;;34.08;22.52;;;9.50;99.90;;;;;;4964998;28;20027;-68
2022/05/02 03:45:59;;;;;;;29.30;21.60;;;9.50;99.90;;;;;;4963317;28;20484;-68
2022/05/02 03:48:26;;;;;;;30.80;22.13;;;9.50;99.90;;;;;;4963671;28;20058;-69
2022/05/02 03:50:52;;;;;;;35.08;23.40;;;9.50;99.90;;;;;;4968385;28;20438;-68
2022/05/02 03:53:18;;;;;;;31.90;23.33;;;9.50;99.90;;;;;;4968796;28;20046;-68
2022/05/02 03:55:45;;;;;;;32.42;22.30;;;9.30;99.90;;;;;;4971158;28;20495;-68
2022/05/02 03:58:11;;;;;;;33.53;22.17;;;9.30;99.90;;;;;;4967964;28;20045;-68
2022/05/02 04:00:38;;;;;;;33.92;21.85;;;9.40;99.90;;;;;;4965155;28;20030;-68
2022/05/02 04:03:04;;;;;;;32.08;21.33;;;9.40;99.90;;;;;;4971999;28;20106;-69
2022/05/02 04:05:29;;;;;;;30.60;22.17;;;9.40;99.90;;;;;;4966215;28;20794;-69
2022/05/02 04:07:55;;;;;;;31.50;21.70;;;9.30;99.90;;;;;;4966660;28;20062;-69
2022/05/02 04:10:21;;;;;;;29.38;21.92;;;9.30;99.90;;;;;;4968731;28;20456;-68
2022/05/02 04:12:46;;;;;;;31.10;21.75;;;9.20;99.90;;;;;;4964334;28;20122;-69
2022/05/02 04:15:13;;;;;;;29.35;21.05;;;9.30;99.90;;;;;;4968754;28;20045;-69
2022/05/02 04:17:39;;;;;;;32.28;21.05;;;9.30;99.90;;;;;;4969909;28;20109;-69
2022/05/02 04:20:07;;;;;;;30.65;21.20;;;9.30;99.90;;;;;;4968248;28;20102;-69
2022/05/02 04:22:33;;;;;;;34.30;21.83;;;9.20;99.90;;;;;;4969121;28;20074;-68
2022/05/02 04:25:00;;;;;;;32.17;20.95;;;9.20;99.90;;;;;;4969167;28;20067;-68
2022/05/02 04:27:25;;;;;;;45.60;23.98;;;9.20;99.90;;;;;;4972177;28;20054;-68
2022/05/02 04:29:51;;;;;;;34.17;21.80;;;9.20;99.90;;;;;;4970135;28;20054;-68
2022/05/02 04:32:17;;;;;;;33.58;23.27;;;9.20;99.90;;;;;;4968393;28;20493;-68
2022/05/02 04:34:42;;;;;;;32.88;21.63;;;9.10;99.90;;;;;;4970605;28;20060;-68
2022/05/02 04:37:08;;;;;;;31.38;21.98;;;9.10;99.90;;;;;;4964503;28;20047;-68
2022/05/02 04:39:34;;;;;;;32.70;23.88;;;9.10;99.90;;;;;;4964484;28;20522;-69
2022/05/02 04:42:00;;;;;;;35.30;21.83;;;9.10;99.90;;;;;;4968311;28;20031;-68
2022/05/02 04:44:25;;;;;;;33.40;23.85;;;9.10;99.90;;;;;;4966901;28;20045;-68
2022/05/02 04:46:51;;;;;;;32.28;23.05;;;9.10;99.90;;;;;;4965772;28;20043;-68
2022/05/02 04:49:17;;;;;;;32.95;23.73;;;9.10;99.90;;;;;;4967286;28;20376;-68
2022/05/02 04:51:42;;;;;;;32.30;21.83;;;9.10;99.90;;;;;;4962553;28;20391;-69
2022/05/02 04:54:08;;;;;;;32.70;21.45;;;9.00;99.90;;;;;;4967592;28;20119;-68
2022/05/02 04:56:34;;;;;;;30.75;21.88;;;8.90;99.90;;;;;;4969831;28;20069;-68
2022/05/02 04:58:59;;;;;;;31.63;22.17;;;9.00;99.90;;;;;;4968156;28;20041;-68
2022/05/02 05:01:25;;;;;;;31.08;22.80;;;9.00;99.90;;;;;;4965121;28;20035;-68
2022/05/02 05:03:51;;;;;;;30.65;22.40;;;9.00;99.90;;;;;;4969348;28;20087;-68
2022/05/02 05:06:17;;;;;;;34.97;23.77;;;9.00;99.90;;;;;;4966931;28;20023;-68
2022/05/02 05:08:42;;;;;;;32.58;22.23;;;9.00;99.90;;;;;;4965351;28;20219;-68
2022/05/02 05:11:27;;;;;;;32.90;22.23;;;9.00;99.90;;;;;;4965285;28;20400;-68
2022/05/02 05:17:17;;;;;;;36.55;23.90;;;9.00;99.90;;;;;;4965790;28;20845;-68
2022/05/02 05:20:09;;;;;;;32.38;22.85;;;9.00;99.90;;;;;;4961973;28;20045;-68
2022/05/02 05:23:12;;;;;;;32.42;24.13;;;9.10;99.90;;;;;;4958555;28;20060;-68
2022/05/02 05:26:05;;;;;;;31.52;22.73;;;9.10;99.90;;;;;;4966596;28;20089;-69
2022/05/02 05:28:43;;;;;;;35.13;24.60;;;9.20;99.90;;;;;;4965345;28;20026;-68
2022/05/02 05:31:27;;;;;;;34.95;22.23;;;9.20;99.90;;;;;;4968756;28;20434;-68
2022/05/02 05:34:08;;;;;;;35.60;24.17;;;9.20;99.90;;;;;;4968132;28;20460;-68
2022/05/02 05:36:43;;;;;;;36.83;24.67;;;9.30;99.90;;;;;;4969521;28;20494;-68
2022/05/02 05:39:22;;;;;;;33.08;23.85;;;9.30;99.90;;;;;;4969060;28;20218;-68
2022/05/02 05:42:00;;;;;;;40.50;26.27;;;9.30;99.90;;;;;;4965097;28;20027;-68
2022/05/02 05:44:34;;;;;;;36.55;25.13;;;9.40;99.90;;;;;;4969397;28;20078;-68
2022/05/02 05:47:09;;;;;;;39.38;26.10;;;9.50;99.90;;;;;;4967172;28;20023;-68
2022/05/02 05:50:07;;;;;;;40.92;25.50;;;9.50;99.90;;;;;;4967343;28;20510;-69
2022/05/02 05:52:51;;;;;;;40.78;25.13;;;9.50;99.90;;;;;;4972388;28;20118;-69
2022/05/02 05:55:52;;;;;;;37.85;26.67;;;9.60;99.90;;;;;;4958605;28;20027;-68
2022/05/02 05:58:28;;;;;;;38.35;27.63;;;9.60;99.90;;;;;;4947503;28;20061;-68
2022/05/02 06:01:14;;;;;;;38.85;25.42;;;9.70;99.90;;;;;;4964007;28;20027;-69
2022/05/02 06:04:07;;;;;;;38.00;25.30;;;9.70;99.90;;;;;;4957349;28;20085;-69
2022/05/02 06:06:35;;;;;;;43.25;26.13;;;9.80;99.90;;;;;;4969122;28;20491;-69
2022/05/02 06:09:02;;;;;;;37.38;26.48;;;9.80;99.90;;;;;;4971019;28;20117;-69
2022/05/02 06:11:29;;;;;;;45.10;29.60;;;9.90;99.90;;;;;;4969840;28;20048;-69
2022/05/02 06:13:58;;;;;;;41.28;28.55;;;9.90;99.90;;;;;;4966786;28;20537;-68
2022/05/02 06:19:16;;;;;;;41.42;28.20;;;10.00;99.90;;;;;;4968249;28;20038;-68
2022/05/02 06:21:46;;;;;;;41.33;29.08;;;10.10;99.90;;;;;;4968105;28;20038;-68
2022/05/02 06:24:13;;;;;;;45.75;31.85;;;10.10;99.90;;;;;;4969568;28;20463;-69
2022/05/02 06:26:40;;;;;;;43.97;31.85;;;10.10;99.90;;;;;;4966632;28;20031;-68
2022/05/02 06:29:08;;;;;;;42.17;28.77;;;10.20;99.90;;;;;;4969381;28;20023;-68
2022/05/02 06:31:40;;;;;;;46.17;31.48;;;10.30;99.90;;;;;;4965659;28;20379;-68
2022/05/02 06:34:06;;;;;;;44.70;28.50;;;10.30;99.90;;;;;;4964040;28;20019;-68
2022/05/02 06:36:35;;;;;;;44.15;28.25;;;10.30;99.90;;;;;;4964588;28;20058;-69
2022/05/02 06:39:23;;;;;;;37.92;27.92;;;10.30;99.90;;;;;;4965519;28;20054;-68
2022/05/02 06:42:07;;;;;;;41.28;29.55;;;10.40;99.90;;;;;;4966373;28;20015;-69
2022/05/02 06:44:50;;;;;;;40.90;27.23;;;10.50;99.90;;;;;;4964841;28;20075;-69
2022/05/02 06:47:16;;;;;;;39.63;26.73;;;10.60;99.90;;;;;;4960921;28;20468;-68
2022/05/02 06:49:43;;;;;;;35.95;26.15;;;10.70;99.90;;;;;;4965243;28;20037;-69
2022/05/02 06:52:11;;;;;;;38.50;26.85;;;10.80;99.90;;;;;;4967337;28;20640;-69
2022/05/02 06:54:55;;;;;;;38.42;25.80;;;10.90;99.90;;;;;;4965502;28;20071;-69
2022/05/02 06:57:48;;;;;;;38.67;26.88;;;11.10;99.90;;;;;;4968783;28;20453;-69
2022/05/02 07:00:17;;;;;;;32.63;23.67;;;11.20;99.90;;;;;;4966551;28;20027;-69
2022/05/02 07:03:08;;;;;;;32.80;23.60;;;11.30;99.90;;;;;;4966770;28;20110;-69
2022/05/02 07:05:54;;;;;;;33.65;23.40;;;11.50;99.90;;;;;;4968271;28;20054;-69
2022/05/02 07:08:28;;;;;;;30.27;22.25;;;11.60;99.90;;;;;;4964079;28;20030;-67
2022/05/02 07:11:02;;;;;;;30.65;22.20;;;11.70;99.90;;;;;;4964144;28;20144;-68
2022/05/02 07:13:42;;;;;;;29.60;20.58;;;11.80;99.90;;;;;;4964996;28;20037;-67
2022/05/02 07:16:24;;;;;;;30.85;20.38;;;12.00;99.90;;;;;;4963626;28;20035;-67
2022/05/02 07:19:20;;;;;;;27.48;20.20;;;12.20;99.90;;;;;;4965321;28;20035;-67
2022/05/02 07:22:03;;;;;;;25.20;19.35;;;12.40;99.90;;;;;;4965775;28;20106;-68
2022/05/02 07:24:43;;;;;;;26.00;20.83;;;12.60;99.90;;;;;;4971244;28;20048;-67
2022/05/02 07:27:17;;;;;;;25.90;19.15;;;12.80;99.90;;;;;;4973111;28;20061;-68
2022/05/02 07:29:46;;;;;;;28.02;21.05;;;12.90;99.90;;;;;;4971023;28;20117;-67
2022/05/02 07:32:14;;;;;;;29.08;20.30;;;13.10;99.90;;;;;;4953763;28;21287;-68
2022/05/02 07:34:42;;;;;;;26.20;19.20;;;13.20;99.90;;;;;;4959435;28;20395;-68
2022/05/02 07:37:10;;;;;;;31.33;19.90;;;13.30;99.90;;;;;;4971133;28;20702;-67
2022/05/02 07:39:39;;;;;;;26.63;18.85;;;13.40;99.90;;;;;;4970604;28;20110;-68
2022/05/02 07:42:06;;;;;;;22.48;17.80;;;13.60;99.90;;;;;;4969276;28;20023;-68
2022/05/02 07:44:34;;;;;;;21.10;15.57;;;13.70;99.90;;;;;;4972258;28;20405;-67
2022/05/02 07:47:03;;;;;;;22.70;17.80;;;13.80;99.90;;;;;;4970866;28;20027;-67
2022/05/02 07:49:32;;;;;;;22.60;16.92;;;14.00;99.90;;;;;;4974238;28;20030;-68
2022/05/02 07:52:01;;;;;;;23.48;17.55;;;14.00;99.90;;;;;;4970011;28;20027;-67
2022/05/02 07:54:30;;;;;;;19.25;14.35;;;14.10;99.90;;;;;;4968510;28;20022;-68
2022/05/02 07:57:00;;;;;;;19.52;16.45;;;14.20;99.90;;;;;;4968556;28;20034;-68
2022/05/02 07:59:31;;;;;;;20.58;15.80;;;14.40;99.90;;;;;;4972555;28;20015;-68
2022/05/02 08:01:57;;;;;;;19.08;16.02;;;14.60;99.90;;;;;;4969065;28;20023;-68
2022/05/02 08:04:23;;;;;;;18.33;14.88;;;14.80;99.90;;;;;;4968869;28;20364;-68
2022/05/02 08:07:15;;;;;;;19.48;15.32;;;14.90;99.90;;;;;;4971168;28;20353;-67
2022/05/02 08:10:05;;;;;;;20.73;16.83;;;15.10;99.90;;;;;;4970133;28;20034;-68
2022/05/02 08:12:39;;;;;;;19.40;15.55;;;15.20;99.90;;;;;;4971529;28;20059;-68
2022/05/02 08:15:23;;;;;;;23.92;15.95;;;15.40;99.50;;;;;;4971117;28;20408;-68
2022/05/02 08:18:04;;;;;;;20.52;16.08;;;15.50;97.80;;;;;;4972226;28;20054;-67
2022/05/02 08:20:56;;;;;;;23.15;15.57;;;15.40;98.70;;;;;;4971797;28;20015;-68
2022/05/02 08:29:40;;;;;;;18.33;15.02;;;15.90;97.90;;;;;;4967316;28;20549;-69
2022/05/02 08:32:14;;;;;;;16.42;12.30;;;16.10;96.90;;;;;;4993037;28;20046;-68
2022/05/02 08:34:39;;;;;;;19.33;14.70;;;16.10;96.30;;;;;;4968286;28;20138;-68
2022/05/02 08:37:15;;;;;;;19.85;14.57;;;16.20;96.50;;;;;;4968227;28;20455;-68
2022/05/02 08:39:49;;;;;;;18.17;12.55;;;16.40;96.10;;;;;;4967801;28;20042;-68
2022/05/02 08:42:49;;;;;;;17.75;13.82;;;16.70;95.50;;;;;;4967641;28;20035;-68
2022/05/02 08:45:49;;;;;;;15.13;12.32;;;16.70;95.40;;;;;;4970268;28;20046;-68
2022/05/02 08:48:29;;;;;;;17.55;12.48;;;16.90;93.10;;;;;;4967638;28;20155;-68
2022/05/02 08:51:18;;;;;;;18.40;12.55;;;17.00;94.10;;;;;;4968502;28;20505;-68
2022/05/02 08:54:01;;;;;;;16.27;12.45;;;17.10;93.90;;;;;;4963991;28;20025;-68
2022/05/02 08:56:39;;;;;;;18.55;11.88;;;17.20;93.40;;;;;;4966678;28;20034;-68
2022/05/02 08:59:13;;;;;;;20.08;12.57;;;17.40;93.30;;;;;;4967538;28;20039;-68
2022/05/02 09:01:45;;;;;;;15.63;12.43;;;17.50;93.90;;;;;;4962567;28;20386;-68
2022/05/02 09:04:48;;;;;;;17.27;10.95;;;17.70;92.60;;;;;;4973180;28;20035;-69
2022/05/02 09:07:41;;;;;;;16.33;12.27;;;17.80;91.90;;;;;;4966416;28;20049;-68
2022/05/02 09:10:23;;;;;;;15.00;10.95;;;17.90;91.90;;;;;;4966796;28;20371;-69
2022/05/02 09:13:16;;;;;;;16.58;12.60;;;18.00;91.50;;;;;;4968350;28;20046;-67
2022/05/02 09:15:54;;;;;;;16.75;13.25;;;18.20;91.60;;;;;;4964795;28;20046;-68
2022/05/02 09:19:04;;;;;;;15.98;11.38;;;18.20;92.10;;;;;;4966949;28;20042;-69
2022/05/02 09:21:51;;;;;;;15.32;12.23;;;18.40;91.90;;;;;;4984004;28;20097;-68
2022/05/02 09:24:41;;;;;;;14.48;10.25;;;18.40;89.70;;;;;;4966314;28;20031;-69
2022/05/02 09:27:52;;;;;;;12.70;10.30;;;18.50;90.00;;;;;;4969310;28;20391;-68
2022/05/02 09:30:24;;;;;;;11.60;10.13;;;18.60;90.80;;;;;;4966957;28;20031;-69
2022/05/02 09:33:04;;;;;;;16.23;10.83;;;18.80;89.30;;;;;;4966972;28;20023;-68
2022/05/02 09:35:29;;;;;;;13.73;10.77;;;18.90;90.00;;;;;;4960502;28;20045;-69
2022/05/02 09:37:57;;;;;;;13.57;10.05;;;19.10;88.70;;;;;;4966727;28;20495;-69
2022/05/02 09:40:43;;;;;;;13.35;9.77;;;19.10;88.50;;;;;;4963660;28;20039;-69
2022/05/02 09:43:26;;;;;;;11.52;8.57;;;19.20;87.80;;;;;;4966366;28;20054;-68
2022/05/02 09:49:34;;;;;;;13.05;10.48;;;19.40;86.00;;;;;;4962471;28;20107;-69
2022/05/02 09:52:56;;;;;;;12.13;10.68;;;19.40;86.00;;;;;;4968339;28;20058;-68
2022/05/02 09:58:32;;;;;;;13.70;10.40;;;19.80;86.10;;;;;;4912643;28;20567;-68
2022/05/02 10:01:07;;;;;;;14.63;11.05;;;19.90;84.80;;;;;;4960437;28;20211;-68
2022/05/02 10:04:12;;;;;;;12.18;9.40;;;19.70;83.10;;;;;;4960102;28;20035;-68
2022/05/02 10:06:53;;;;;;;11.07;9.07;;;19.80;82.60;;;;;;4956838;28;20031;-68
2022/05/02 10:09:52;;;;;;;12.13;9.25;;;20.00;83.70;;;;;;4964387;28;20037;-68
2022/05/02 10:12:32;;;;;;;10.57;8.15;;;20.00;82.50;;;;;;4962195;28;20483;-68
2022/05/02 10:15:12;;;;;;;14.52;9.50;;;20.10;84.10;;;;;;4961935;28;20018;-68
2022/05/02 10:18:04;;;;;;;12.43;9.18;;;19.80;81.40;;;;;;4965294;28;20041;-69
2022/05/02 10:21:00;;;;;;;13.60;11.23;;;19.70;85.10;;;;;;4966463;28;20391;-68
2022/05/02 10:23:34;;;;;;;18.23;12.02;;;19.80;83.60;;;;;;4967004;28;20045;-69
2022/05/02 10:26:14;;;;;;;12.73;11.40;;;19.70;83.80;;;;;;4964684;28;20107;-68
2022/05/02 10:29:09;;;;;;;15.27;10.77;;;19.80;82.20;;;;;;4965373;28;20037;-68
2022/05/02 10:31:35;;;;;;;11.43;10.23;;;20.00;84.30;;;;;;4951718;28;20488;-68
2022/05/02 10:34:04;;;;;;;11.73;9.70;;;20.30;81.60;;;;;;4965151;28;20038;-68
2022/05/02 10:36:37;;;;;;;12.55;10.38;;;20.50;80.40;;;;;;4963916;28;20023;-68
2022/05/02 10:39:23;;;;;;;13.48;11.32;;;20.20;81.30;;;;;;4963317;28;20038;-68
2022/05/02 10:41:55;;;;;;;11.68;10.48;;;20.30;83.10;;;;;;4972685;28;20062;-68
2022/05/02 10:44:25;;;;;;;13.55;10.40;;;20.50;80.60;;;;;;4967614;28;20023;-68
2022/05/02 10:46:54;;;;;;;16.00;9.85;;;20.70;81.50;;;;;;4959959;28;20072;-68
2022/05/02 10:49:48;;;;;;;11.98;10.35;;;20.90;81.30;;;;;;4965734;28;20022;-68
2022/05/02 10:52:22;;;;;;;10.93;8.93;;;21.00;80.90;;;;;;4967968;28;20483;-68
2022/05/02 10:55:02;;;;;;;13.70;10.82;;;21.00;82.50;;;;;;4959378;28;20476;-68
2022/05/02 10:57:31;;;;;;;12.02;10.00;;;21.20;78.50;;;;;;4964987;28;20399;-68
2022/05/02 11:00:07;;;;;;;11.75;10.52;;;21.00;80.20;;;;;;4981205;28;20387;-69
2022/05/02 11:02:51;;;;;;;13.43;10.27;;;21.20;78.10;;;;;;4965112;28;20391;-69
2022/05/02 11:05:24;;;;;;;11.93;9.05;;;21.20;79.10;;;;;;4962655;28;20035;-68
2022/05/02 11:08:09;;;;;;;12.18;10.75;;;21.20;81.70;;;;;;4962030;28;20023;-68
2022/05/02 11:10:44;;;;;;;13.48;9.80;;;21.20;79.60;;;;;;4963635;28;20062;-68
2022/05/02 11:13:20;;;;;;;11.38;9.45;;;21.30;81.40;;;;;;4964421;28;20039;-68
2022/05/02 11:16:06;;;;;;;14.20;9.82;;;21.10;78.10;;;;;;4967990;28;20030;-68
2022/05/02 11:22:08;;;;;;;10.85;9.80;;;21.40;80.60;;;;;;4963612;28;20038;-68
2022/05/02 11:24:45;;;;;;;12.38;9.43;;;21.60;78.20;;;;;;4962638;28;20035;-68
2022/05/02 11:27:43;;;;;;;11.68;9.93;;;21.80;77.40;;;;;;4963911;28;20019;-68
2022/05/02 11:30:12;;;;;;;15.05;9.77;;;22.00;77.40;;;;;;4971139;28;20142;-68
2022/05/02 11:32:37;;;;;;;12.30;9.63;;;22.00;79.00;;;;;;4964806;28;20015;-68
2022/05/02 11:35:14;;;;;;;10.93;9.77;;;22.00;77.40;;;;;;4962168;28;20102;-67
2022/05/02 11:37:54;;;;;;;13.13;11.00;;;21.70;78.90;;;;;;4961961;28;20088;-68
2022/05/02 11:40:26;;;;;;;14.38;10.57;;;21.80;77.50;;;;;;4966037;28;20686;-68
2022/05/02 11:42:52;;;;;;;;;;;22.10;78.60;;;;;;4979469;28;20045;-68
2022/05/02 11:45:19;;;;;;;14.57;10.32;;;22.10;76.80;;;;;;4967631;28;19906;-68
2022/05/02 11:48:18;;;;;;;14.30;9.77;;;22.10;76.80;;;;;;4964854;28;20027;-68
2022/05/02 11:50:46;;;;;;;12.88;9.07;;;22.20;80.10;;;;;;4968331;28;20105;-67
2022/05/02 11:53:14;;;;;;;11.02;9.93;;;22.40;79.50;;;;;;4961512;28;20110;-68
2022/05/02 11:55:42;;;;;;;9.90;8.77;;;22.50;74.50;;;;;;4970340;28;20046;-67
2022/05/02 11:58:19;;;;;;;10.73;8.50;;;22.50;76.70;;;;;;4960360;28;20430;-67
2022/05/02 12:00:58;;;;;;;12.10;9.20;;;22.50;77.40;;;;;;4967257;28;20037;-67
2022/05/02 12:03:25;;;;;;;12.40;9.30;;;22.60;76.70;;;;;;4961964;28;20035;-68
2022/05/02 12:05:55;;;;;;;11.30;9.05;;;22.60;75.30;;;;;;4962075;28;20118;-67
2022/05/02 12:08:44;;;;;;;14.00;9.55;;;22.70;75.60;;;;;;4964828;28;20038;-67
2022/05/02 12:11:12;;;;;;;11.82;10.50;;;22.50;75.90;;;;;;4965689;28;20379;-68
2022/05/02 12:13:44;;;;;;;13.85;9.68;;;22.40;74.70;;;;;;4968281;28;20126;-67
2022/05/02 12:16:19;;;;;;;11.88;10.60;;;22.50;76.80;;;;;;4969776;28;20023;-66
2022/05/02 12:18:50;;;;;;;12.70;10.45;;;22.70;76.90;;;;;;4969742;28;20045;-67
2022/05/02 12:21:31;;;;;;;12.15;9.63;;;22.70;75.20;;;;;;4968074;28;20034;-67
2022/05/02 12:23:58;;;;;;;10.60;9.23;;;22.40;75.10;;;;;;4971427;28;20026;-66
2022/05/02 12:26:25;;;;;;;10.82;9.63;;;22.20;76.10;;;;;;4970273;28;20026;-66
2022/05/02 12:28:58;;;;;;;13.20;10.07;;;21.90;78.10;;;;;;4971552;28;20145;-66
2022/05/02 12:31:23;;;;;;;10.40;9.02;;;21.80;76.90;;;;;;4967825;28;20506;-67
2022/05/02 12:33:57;;;;;;;12.60;10.73;;;21.60;76.40;;;;;;4967547;28;20018;-66
2022/05/02 12:36:26;;;;;;;11.02;9.40;;;21.20;77.60;;;;;;4966778;28;20031;-66
2022/05/02 12:39:21;;;;;;;12.88;9.75;;;21.00;77.60;;;;;;4957538;28;20031;-66
2022/05/02 12:41:49;;;;;;;11.40;9.55;;;21.30;78.10;;;;;;4976244;28;20038;-66
2022/05/02 12:44:18;;;;;;;10.05;9.00;;;21.50;77.70;;;;;;4968145;28;20507;-69
2022/05/02 12:46:46;;;;;;;11.00;8.95;;;21.50;78.60;;;;;;4969820;28;20029;-68
2022/05/02 12:49:52;;;;;;;12.20;9.63;;;21.70;80.30;;;;;;4969984;28;20027;-69
2022/05/02 12:52:20;;;;;;;11.15;8.35;;;21.90;75.20;;;;;;4969710;28;20133;-68
2022/05/02 12:54:50;;;;;;;13.65;9.63;;;22.30;78.50;;;;;;4966772;28;20472;-68
2022/05/02 13:02:52;;;;;;;10.60;9.50;;;22.50;76.70;;;;;;4962018;28;20088;-69
2022/05/02 13:05:25;;;;;;;11.15;9.40;;;22.50;76.20;;;;;;4966116;28;20031;-68
2022/05/02 13:07:54;;;;;;;;;;;22.70;77.30;;;;;;4964456;28;20028;-68
2022/05/02 13:10:29;;;;;;;9.98;8.50;;;22.70;76.50;;;;;;4961704;28;19964;-68
2022/05/02 13:12:58;;;;;;;10.88;8.60;;;22.70;75.50;;;;;;4967494;28;20076;-68
2022/05/02 13:15:41;;;;;;;15.80;9.45;;;22.40;76.70;;;;;;4965512;28;20390;-69
2022/05/02 13:18:12;;;;;;;10.45;8.57;;;22.20;75.70;;;;;;4965723;28;20039;-68
2022/05/02 13:20:39;;;;;;;11.82;10.10;;;21.90;77.40;;;;;;4961443;28;20027;-68
2022/05/02 13:23:16;;;;;;;10.77;9.52;;;21.70;77.20;;;;;;4969077;28;20076;-68
2022/05/02 13:26:00;;;;;;;12.65;10.00;;;21.60;77.20;;;;;;4969392;28;20479;-68
2022/05/02 13:28:50;;;;;;;14.30;11.02;;;21.40;75.90;;;;;;4966647;28;20435;-68
2022/05/02 13:31:40;;;;;;;13.40;10.98;;;21.20;76.00;;;;;;4965138;28;20033;-68
2022/05/02 13:34:31;;;;;;;11.80;9.05;;;21.20;76.60;;;;;;4964654;28;20121;-68